sensor_id;sensor_type;location;lat;lon;timestamp;P1;durP1;ratioP1;P2;durP2;ratioP2
16822;SDS011;8528;49.976;11.858;2023-07-29T00:02:08;3.80;;;3.30;;
16822;SDS011;8528;49.976;11.858;2023-07-29T00:04:35;3.33;;;3.03;;
16822;SDS011;8528;49.976;11.858;2023-07-29T00:07:02;4.17;;;3.87;;
16822;SDS011;8528;49.976;11.858;2023-07-29T00:09:29;3.70;;;3.40;;
16822;SDS011;8528;49.976;11.858;2023-07-29T00:11:56;3.23;;;2.93;;
16822;SDS011;8528;49.976;11.858;2023-07-29T00:14:23;3.83;;;3.47;;
16822;SDS011;8528;49.976;11.858;2023-07-29T00:16:50;4.90;;;3.80;;
16822;SDS011;8528;49.976;11.858;2023-07-29T00:19:17;3.60;;;3.30;;
16822;SDS011;8528;49.976;11.858;2023-07-29T00:21:50;4.00;;;3.47;;
16822;SDS011;8528;49.976;11.858;2023-07-29T00:24:17;3.87;;;3.57;;
16822;SDS011;8528;49.976;11.858;2023-07-29T00:26:44;4.10;;;3.70;;
16822;SDS011;8528;49.976;11.858;2023-07-29T00:29:12;3.53;;;3.23;;
16822;SDS011;8528;49.976;11.858;2023-07-29T00:31:39;4.07;;;3.67;;
16822;SDS011;8528;49.976;11.858;2023-07-29T00:34:06;4.37;;;3.97;;
16822;SDS011;8528;49.976;11.858;2023-07-29T00:36:33;3.90;;;3.60;;
16822;SDS011;8528;49.976;11.858;2023-07-29T00:39:00;4.50;;;4.00;;
16822;SDS011;8528;49.976;11.858;2023-07-29T00:41:28;3.73;;;3.20;;
16822;SDS011;8528;49.976;11.858;2023-07-29T00:43:55;4.23;;;3.83;;
16822;SDS011;8528;49.976;11.858;2023-07-29T00:46:22;3.53;;;3.23;;
16822;SDS011;8528;49.976;11.858;2023-07-29T00:48:49;4.27;;;3.87;;
16822;SDS011;8528;49.976;11.858;2023-07-29T00:51:17;3.83;;;3.53;;
16822;SDS011;8528;49.976;11.858;2023-07-29T00:53:44;3.70;;;3.40;;
16822;SDS011;8528;49.976;11.858;2023-07-29T00:56:11;3.67;;;3.37;;
16822;SDS011;8528;49.976;11.858;2023-07-29T00:58:39;3.80;;;3.50;;
16822;SDS011;8528;49.976;11.858;2023-07-29T01:01:06;4.07;;;3.70;;
16822;SDS011;8528;49.976;11.858;2023-07-29T01:03:34;4.17;;;3.77;;
16822;SDS011;8528;49.976;11.858;2023-07-29T01:06:21;5.00;;;3.77;;
16822;SDS011;8528;49.976;11.858;2023-07-29T01:09:04;4.07;;;3.67;;
16822;SDS011;8528;49.976;11.858;2023-07-29T01:11:55;3.80;;;3.40;;
16822;SDS011;8528;49.976;11.858;2023-07-29T01:17:55;2.83;;;2.63;;
16822;SDS011;8528;49.976;11.858;2023-07-29T01:20:27;2.60;;;2.30;;
16822;SDS011;8528;49.976;11.858;2023-07-29T01:22:56;3.00;;;2.70;;
16822;SDS011;8528;49.976;11.858;2023-07-29T01:25:34;3.07;;;2.77;;
16822;SDS011;8528;49.976;11.858;2023-07-29T01:28:01;4.37;;;3.03;;
16822;SDS011;8528;49.976;11.858;2023-07-29T01:30:29;2.90;;;2.70;;
16822;SDS011;8528;49.976;11.858;2023-07-29T01:35:54;3.73;;;3.37;;
16822;SDS011;8528;49.976;11.858;2023-07-29T01:38:40;3.87;;;3.17;;
16822;SDS011;8528;49.976;11.858;2023-07-29T01:41:08;3.57;;;3.27;;
16822;SDS011;8528;49.976;11.858;2023-07-29T01:43:37;4.33;;;3.93;;
16822;SDS011;8528;49.976;11.858;2023-07-29T01:46:11;3.97;;;3.67;;
16822;SDS011;8528;49.976;11.858;2023-07-29T01:48:39;4.47;;;4.07;;
16822;SDS011;8528;49.976;11.858;2023-07-29T01:51:06;4.50;;;4.10;;
16822;SDS011;8528;49.976;11.858;2023-07-29T01:53:33;4.73;;;4.33;;
16822;SDS011;8528;49.976;11.858;2023-07-29T01:56:01;5.40;;;4.70;;
16822;SDS011;8528;49.976;11.858;2023-07-29T01:58:29;5.20;;;4.70;;
16822;SDS011;8528;49.976;11.858;2023-07-29T02:00:56;5.93;;;4.70;;
16822;SDS011;8528;49.976;11.858;2023-07-29T02:03:23;4.90;;;4.50;;
16822;SDS011;8528;49.976;11.858;2023-07-29T02:05:50;4.90;;;4.50;;
16822;SDS011;8528;49.976;11.858;2023-07-29T02:08:17;5.33;;;4.47;;
16822;SDS011;8528;49.976;11.858;2023-07-29T02:10:44;6.17;;;4.23;;
16822;SDS011;8528;49.976;11.858;2023-07-29T02:13:12;6.17;;;4.07;;
16822;SDS011;8528;49.976;11.858;2023-07-29T02:15:39;5.20;;;4.70;;
16822;SDS011;8528;49.976;11.858;2023-07-29T02:18:06;5.33;;;4.93;;
16822;SDS011;8528;49.976;11.858;2023-07-29T02:20:34;5.07;;;4.57;;
16822;SDS011;8528;49.976;11.858;2023-07-29T02:23:01;5.50;;;4.70;;
16822;SDS011;8528;49.976;11.858;2023-07-29T02:25:28;5.07;;;4.67;;
16822;SDS011;8528;49.976;11.858;2023-07-29T02:27:54;6.47;;;5.83;;
16822;SDS011;8528;49.976;11.858;2023-07-29T02:30:22;5.90;;;5.30;;
16822;SDS011;8528;49.976;11.858;2023-07-29T02:32:49;6.27;;;5.73;;
16822;SDS011;8528;49.976;11.858;2023-07-29T02:35:16;6.53;;;5.27;;
16822;SDS011;8528;49.976;11.858;2023-07-29T02:37:43;7.03;;;6.33;;
16822;SDS011;8528;49.976;11.858;2023-07-29T02:40:14;6.43;;;5.67;;
16822;SDS011;8528;49.976;11.858;2023-07-29T02:42:40;6.73;;;6.03;;
16822;SDS011;8528;49.976;11.858;2023-07-29T02:45:07;6.63;;;5.97;;
16822;SDS011;8528;49.976;11.858;2023-07-29T02:47:38;5.53;;;5.03;;
16822;SDS011;8528;49.976;11.858;2023-07-29T02:50:05;5.63;;;5.13;;
16822;SDS011;8528;49.976;11.858;2023-07-29T02:52:32;6.90;;;6.30;;
16822;SDS011;8528;49.976;11.858;2023-07-29T02:54:59;7.77;;;6.43;;
16822;SDS011;8528;49.976;11.858;2023-07-29T02:57:26;7.50;;;6.80;;
16822;SDS011;8528;49.976;11.858;2023-07-29T02:59:53;6.90;;;6.20;;
16822;SDS011;8528;49.976;11.858;2023-07-29T03:02:20;7.30;;;6.60;;
16822;SDS011;8528;49.976;11.858;2023-07-29T03:04:48;7.53;;;6.70;;
16822;SDS011;8528;49.976;11.858;2023-07-29T03:07:14;6.57;;;5.97;;
16822;SDS011;8528;49.976;11.858;2023-07-29T03:09:42;6.37;;;5.53;;
16822;SDS011;8528;49.976;11.858;2023-07-29T03:12:10;5.23;;;4.73;;
16822;SDS011;8528;49.976;11.858;2023-07-29T03:14:37;5.97;;;5.47;;
16822;SDS011;8528;49.976;11.858;2023-07-29T03:17:05;6.00;;;5.40;;
16822;SDS011;8528;49.976;11.858;2023-07-29T03:19:32;5.23;;;4.73;;
16822;SDS011;8528;49.976;11.858;2023-07-29T03:22:04;5.43;;;4.93;;
16822;SDS011;8528;49.976;11.858;2023-07-29T03:24:31;5.87;;;5.37;;
16822;SDS011;8528;49.976;11.858;2023-07-29T03:26:58;6.20;;;5.60;;
16822;SDS011;8528;49.976;11.858;2023-07-29T03:29:25;6.03;;;5.43;;
16822;SDS011;8528;49.976;11.858;2023-07-29T03:31:52;5.17;;;4.77;;
16822;SDS011;8528;49.976;11.858;2023-07-29T03:34:19;6.43;;;5.83;;
16822;SDS011;8528;49.976;11.858;2023-07-29T03:36:46;5.20;;;4.77;;
16822;SDS011;8528;49.976;11.858;2023-07-29T03:39:16;5.27;;;4.77;;
16822;SDS011;8528;49.976;11.858;2023-07-29T03:41:43;5.20;;;4.70;;
16822;SDS011;8528;49.976;11.858;2023-07-29T03:44:10;4.73;;;4.33;;
16822;SDS011;8528;49.976;11.858;2023-07-29T03:46:37;4.57;;;4.17;;
16822;SDS011;8528;49.976;11.858;2023-07-29T03:49:05;4.37;;;3.97;;
16822;SDS011;8528;49.976;11.858;2023-07-29T03:51:33;4.47;;;4.07;;
16822;SDS011;8528;49.976;11.858;2023-07-29T03:54:01;4.63;;;4.23;;
16822;SDS011;8528;49.976;11.858;2023-07-29T03:56:28;4.47;;;4.07;;
16822;SDS011;8528;49.976;11.858;2023-07-29T04:01:53;4.53;;;4.13;;
16822;SDS011;8528;49.976;11.858;2023-07-29T04:04:26;4.63;;;4.20;;
16822;SDS011;8528;49.976;11.858;2023-07-29T04:06:55;4.63;;;4.23;;
16822;SDS011;8528;49.976;11.858;2023-07-29T04:09:22;4.23;;;3.90;;
16822;SDS011;8528;49.976;11.858;2023-07-29T04:11:50;4.17;;;3.87;;
16822;SDS011;8528;49.976;11.858;2023-07-29T04:14:17;4.37;;;4.00;;
16822;SDS011;8528;49.976;11.858;2023-07-29T04:16:44;4.07;;;3.67;;
16822;SDS011;8528;49.976;11.858;2023-07-29T04:19:15;3.77;;;3.47;;
16822;SDS011;8528;49.976;11.858;2023-07-29T04:21:42;3.27;;;3.03;;
16822;SDS011;8528;49.976;11.858;2023-07-29T04:24:09;3.27;;;3.07;;
16822;SDS011;8528;49.976;11.858;2023-07-29T04:26:36;3.50;;;3.10;;
16822;SDS011;8528;49.976;11.858;2023-07-29T04:29:06;2.90;;;2.70;;
16822;SDS011;8528;49.976;11.858;2023-07-29T04:31:33;2.97;;;2.77;;
16822;SDS011;8528;49.976;11.858;2023-07-29T04:34:01;2.60;;;2.40;;
16822;SDS011;8528;49.976;11.858;2023-07-29T04:36:28;3.50;;;2.50;;
16822;SDS011;8528;49.976;11.858;2023-07-29T04:38:57;2.97;;;2.77;;
16822;SDS011;8528;49.976;11.858;2023-07-29T04:41:24;2.90;;;2.63;;
16822;SDS011;8528;49.976;11.858;2023-07-29T04:43:51;3.73;;;3.43;;
16822;SDS011;8528;49.976;11.858;2023-07-29T04:46:19;3.10;;;2.90;;
16822;SDS011;8528;49.976;11.858;2023-07-29T04:48:46;2.80;;;2.60;;
16822;SDS011;8528;49.976;11.858;2023-07-29T04:51:13;3.40;;;3.10;;
16822;SDS011;8528;49.976;11.858;2023-07-29T04:53:39;3.33;;;2.93;;
16822;SDS011;8528;49.976;11.858;2023-07-29T04:56:07;3.30;;;3.00;;
16822;SDS011;8528;49.976;11.858;2023-07-29T04:58:34;4.23;;;2.87;;
16822;SDS011;8528;49.976;11.858;2023-07-29T05:03:53;5.13;;;4.00;;
16822;SDS011;8528;49.976;11.858;2023-07-29T05:06:21;5.53;;;4.60;;
16822;SDS011;8528;49.976;11.858;2023-07-29T05:08:49;6.43;;;4.40;;
16822;SDS011;8528;49.976;11.858;2023-07-29T05:11:16;4.20;;;3.83;;
16822;SDS011;8528;49.976;11.858;2023-07-29T05:13:43;6.77;;;5.90;;
16822;SDS011;8528;49.976;11.858;2023-07-29T05:16:10;7.83;;;5.80;;
16822;SDS011;8528;49.976;11.858;2023-07-29T05:18:37;4.43;;;4.03;;
16822;SDS011;8528;49.976;11.858;2023-07-29T05:21:05;3.70;;;3.40;;
16822;SDS011;8528;49.976;11.858;2023-07-29T05:23:32;4.33;;;3.43;;
16822;SDS011;8528;49.976;11.858;2023-07-29T05:26:00;3.03;;;2.83;;
16822;SDS011;8528;49.976;11.858;2023-07-29T05:28:27;3.17;;;2.87;;
16822;SDS011;8528;49.976;11.858;2023-07-29T05:30:57;3.30;;;3.00;;
16822;SDS011;8528;49.976;11.858;2023-07-29T05:33:28;2.73;;;2.53;;
16822;SDS011;8528;49.976;11.858;2023-07-29T05:35:55;3.40;;;3.10;;
16822;SDS011;8528;49.976;11.858;2023-07-29T05:38:23;3.00;;;2.80;;
16822;SDS011;8528;49.976;11.858;2023-07-29T05:40:49;3.87;;;2.47;;
16822;SDS011;8528;49.976;11.858;2023-07-29T05:43:17;2.67;;;2.40;;
16822;SDS011;8528;49.976;11.858;2023-07-29T05:45:44;4.53;;;2.67;;
16822;SDS011;8528;49.976;11.858;2023-07-29T05:48:11;3.20;;;2.90;;
16822;SDS011;8528;49.976;11.858;2023-07-29T05:50:38;3.17;;;2.73;;
16822;SDS011;8528;49.976;11.858;2023-07-29T05:53:05;3.67;;;3.33;;
16822;SDS011;8528;49.976;11.858;2023-07-29T05:55:32;4.10;;;3.07;;
16822;SDS011;8528;49.976;11.858;2023-07-29T05:57:59;3.03;;;2.83;;
16822;SDS011;8528;49.976;11.858;2023-07-29T06:00:27;2.73;;;2.53;;
16822;SDS011;8528;49.976;11.858;2023-07-29T06:02:55;3.00;;;2.70;;
16822;SDS011;8528;49.976;11.858;2023-07-29T06:05:22;3.00;;;2.80;;
16822;SDS011;8528;49.976;11.858;2023-07-29T06:07:49;3.03;;;2.70;;
16822;SDS011;8528;49.976;11.858;2023-07-29T06:10:16;3.10;;;2.83;;
16822;SDS011;8528;49.976;11.858;2023-07-29T06:12:48;3.00;;;2.27;;
16822;SDS011;8528;49.976;11.858;2023-07-29T06:15:15;2.70;;;2.50;;
16822;SDS011;8528;49.976;11.858;2023-07-29T06:17:42;2.70;;;2.50;;
16822;SDS011;8528;49.976;11.858;2023-07-29T06:20:09;2.60;;;2.40;;
16822;SDS011;8528;49.976;11.858;2023-07-29T06:22:36;2.50;;;2.30;;
16822;SDS011;8528;49.976;11.858;2023-07-29T06:25:03;2.57;;;2.37;;
16822;SDS011;8528;49.976;11.858;2023-07-29T06:27:31;2.83;;;2.50;;
16822;SDS011;8528;49.976;11.858;2023-07-29T06:29:58;2.13;;;1.87;;
16822;SDS011;8528;49.976;11.858;2023-07-29T06:32:24;3.03;;;2.00;;
16822;SDS011;8528;49.976;11.858;2023-07-29T06:34:51;2.07;;;1.87;;
16822;SDS011;8528;49.976;11.858;2023-07-29T06:37:27;6.73;;;2.77;;
16822;SDS011;8528;49.976;11.858;2023-07-29T06:39:54;2.30;;;2.10;;
16822;SDS011;8528;49.976;11.858;2023-07-29T06:42:21;2.13;;;1.90;;
16822;SDS011;8528;49.976;11.858;2023-07-29T06:44:48;2.37;;;1.93;;
16822;SDS011;8528;49.976;11.858;2023-07-29T06:47:15;2.70;;;2.13;;
16822;SDS011;8528;49.976;11.858;2023-07-29T06:49:42;4.23;;;2.17;;
16822;SDS011;8528;49.976;11.858;2023-07-29T06:52:09;2.70;;;1.80;;
16822;SDS011;8528;49.976;11.858;2023-07-29T06:54:36;2.33;;;2.13;;
16822;SDS011;8528;49.976;11.858;2023-07-29T06:57:03;1.90;;;1.70;;
16822;SDS011;8528;49.976;11.858;2023-07-29T06:59:30;3.00;;;1.90;;
16822;SDS011;8528;49.976;11.858;2023-07-29T07:01:57;2.30;;;2.10;;
16822;SDS011;8528;49.976;11.858;2023-07-29T07:04:26;1.90;;;1.80;;
16822;SDS011;8528;49.976;11.858;2023-07-29T07:06:53;1.80;;;1.70;;
16822;SDS011;8528;49.976;11.858;2023-07-29T07:09:21;1.63;;;1.53;;
16822;SDS011;8528;49.976;11.858;2023-07-29T07:11:48;2.40;;;1.67;;
16822;SDS011;8528;49.976;11.858;2023-07-29T07:14:14;1.87;;;1.67;;
16822;SDS011;8528;49.976;11.858;2023-07-29T07:16:41;2.20;;;2.00;;
16822;SDS011;8528;49.976;11.858;2023-07-29T07:19:09;3.97;;;1.83;;
16822;SDS011;8528;49.976;11.858;2023-07-29T07:21:36;2.47;;;2.00;;
16822;SDS011;8528;49.976;11.858;2023-07-29T07:24:03;2.03;;;1.90;;
16822;SDS011;8528;49.976;11.858;2023-07-29T07:26:30;2.50;;;2.10;;
16822;SDS011;8528;49.976;11.858;2023-07-29T07:28:57;2.00;;;1.90;;
16822;SDS011;8528;49.976;11.858;2023-07-29T07:31:24;2.20;;;2.00;;
16822;SDS011;8528;49.976;11.858;2023-07-29T07:33:51;3.23;;;1.90;;
16822;SDS011;8528;49.976;11.858;2023-07-29T07:36:18;3.00;;;2.00;;
16822;SDS011;8528;49.976;11.858;2023-07-29T07:38:46;2.87;;;2.13;;
16822;SDS011;8528;49.976;11.858;2023-07-29T07:41:13;3.83;;;2.27;;
16822;SDS011;8528;49.976;11.858;2023-07-29T07:43:40;3.07;;;2.40;;
16822;SDS011;8528;49.976;11.858;2023-07-29T07:46:10;2.97;;;2.40;;
16822;SDS011;8528;49.976;11.858;2023-07-29T07:48:37;4.00;;;2.57;;
16822;SDS011;8528;49.976;11.858;2023-07-29T07:51:11;2.40;;;2.20;;
16822;SDS011;8528;49.976;11.858;2023-07-29T07:53:39;2.40;;;2.17;;
16822;SDS011;8528;49.976;11.858;2023-07-29T07:56:07;3.43;;;2.53;;
16822;SDS011;8528;49.976;11.858;2023-07-29T07:58:34;2.13;;;2.03;;
16822;SDS011;8528;49.976;11.858;2023-07-29T08:01:04;5.53;;;2.73;;
16822;SDS011;8528;49.976;11.858;2023-07-29T08:03:34;3.73;;;2.43;;
16822;SDS011;8528;49.976;11.858;2023-07-29T08:06:04;2.73;;;2.40;;
16822;SDS011;8528;49.976;11.858;2023-07-29T08:08:34;2.83;;;2.33;;
16822;SDS011;8528;49.976;11.858;2023-07-29T08:11:01;2.97;;;2.30;;
16822;SDS011;8528;49.976;11.858;2023-07-29T08:13:28;2.33;;;2.00;;
16822;SDS011;8528;49.976;11.858;2023-07-29T08:15:55;2.10;;;1.90;;
16822;SDS011;8528;49.976;11.858;2023-07-29T08:18:22;3.77;;;1.50;;
16822;SDS011;8528;49.976;11.858;2023-07-29T08:20:54;1.93;;;1.50;;
16822;SDS011;8528;49.976;11.858;2023-07-29T08:23:25;4.63;;;2.67;;
16822;SDS011;8528;49.976;11.858;2023-07-29T08:25:57;2.07;;;1.03;;
16822;SDS011;8528;49.976;11.858;2023-07-29T08:28:29;8.53;;;4.77;;
16822;SDS011;8528;49.976;11.858;2023-07-29T08:30:58;2.20;;;1.70;;
16822;SDS011;8528;49.976;11.858;2023-07-29T08:33:25;2.80;;;1.67;;
16822;SDS011;8528;49.976;11.858;2023-07-29T08:35:52;1.10;;;1.00;;
16822;SDS011;8528;49.976;11.858;2023-07-29T08:38:20;1.40;;;1.30;;
16822;SDS011;8528;49.976;11.858;2023-07-29T08:46:24;1.40;;;1.30;;
16822;SDS011;8528;49.976;11.858;2023-07-29T08:48:54;1.97;;;1.80;;
16822;SDS011;8528;49.976;11.858;2023-07-29T08:51:22;2.10;;;1.90;;
16822;SDS011;8528;49.976;11.858;2023-07-29T08:53:50;1.63;;;1.53;;
16822;SDS011;8528;49.976;11.858;2023-07-29T08:56:22;1.93;;;1.43;;
16822;SDS011;8528;49.976;11.858;2023-07-29T08:58:50;1.77;;;1.67;;
16822;SDS011;8528;49.976;11.858;2023-07-29T09:01:18;4.93;;;2.53;;
16822;SDS011;8528;49.976;11.858;2023-07-29T09:03:45;2.03;;;1.87;;
16822;SDS011;8528;49.976;11.858;2023-07-29T09:06:13;2.77;;;1.60;;
16822;SDS011;8528;49.976;11.858;2023-07-29T09:08:41;1.83;;;1.70;;
16822;SDS011;8528;49.976;11.858;2023-07-29T09:11:08;2.33;;;1.70;;
16822;SDS011;8528;49.976;11.858;2023-07-29T09:13:35;2.50;;;2.13;;
16822;SDS011;8528;49.976;11.858;2023-07-29T09:16:02;1.73;;;1.63;;
16822;SDS011;8528;49.976;11.858;2023-07-29T09:18:30;3.00;;;2.70;;
16822;SDS011;8528;49.976;11.858;2023-07-29T09:20:58;4.33;;;3.93;;
16822;SDS011;8528;49.976;11.858;2023-07-29T09:23:27;3.97;;;3.67;;
16822;SDS011;8528;49.976;11.858;2023-07-29T09:26:00;2.00;;;1.90;;
16822;SDS011;8528;49.976;11.858;2023-07-29T09:28:31;2.40;;;2.20;;
16822;SDS011;8528;49.976;11.858;2023-07-29T09:31:06;2.47;;;2.20;;
16822;SDS011;8528;49.976;11.858;2023-07-29T09:33:34;2.30;;;2.10;;
16822;SDS011;8528;49.976;11.858;2023-07-29T09:36:08;3.13;;;1.80;;
16822;SDS011;8528;49.976;11.858;2023-07-29T09:38:44;2.50;;;2.30;;
16822;SDS011;8528;49.976;11.858;2023-07-29T09:41:13;2.27;;;2.07;;
16822;SDS011;8528;49.976;11.858;2023-07-29T09:43:42;1.80;;;1.70;;
16822;SDS011;8528;49.976;11.858;2023-07-29T09:46:08;2.60;;;2.40;;
16822;SDS011;8528;49.976;11.858;2023-07-29T09:48:36;2.03;;;1.87;;
16822;SDS011;8528;49.976;11.858;2023-07-29T09:51:14;2.10;;;1.90;;
16822;SDS011;8528;49.976;11.858;2023-07-29T09:53:42;2.47;;;2.27;;
16822;SDS011;8528;49.976;11.858;2023-07-29T09:56:13;1.70;;;1.60;;
16822;SDS011;8528;49.976;11.858;2023-07-29T09:58:44;3.77;;;2.03;;
16822;SDS011;8528;49.976;11.858;2023-07-29T10:01:12;2.40;;;1.90;;
16822;SDS011;8528;49.976;11.858;2023-07-29T10:03:40;2.60;;;2.40;;
16822;SDS011;8528;49.976;11.858;2023-07-29T10:06:07;1.97;;;1.87;;
16822;SDS011;8528;49.976;11.858;2023-07-29T10:08:35;2.30;;;2.10;;
16822;SDS011;8528;49.976;11.858;2023-07-29T10:11:07;2.20;;;2.00;;
16822;SDS011;8528;49.976;11.858;2023-07-29T10:13:35;2.67;;;1.70;;
16822;SDS011;8528;49.976;11.858;2023-07-29T10:16:03;2.80;;;1.50;;
16822;SDS011;8528;49.976;11.858;2023-07-29T10:18:32;1.70;;;1.60;;
16822;SDS011;8528;49.976;11.858;2023-07-29T10:20:59;2.60;;;2.40;;
16822;SDS011;8528;49.976;11.858;2023-07-29T10:23:36;2.10;;;1.60;;
16822;SDS011;8528;49.976;11.858;2023-07-29T10:26:09;1.50;;;1.40;;
16822;SDS011;8528;49.976;11.858;2023-07-29T10:28:39;2.97;;;2.77;;
16822;SDS011;8528;49.976;11.858;2023-07-29T10:31:08;9.20;;;8.40;;
16822;SDS011;8528;49.976;11.858;2023-07-29T10:33:35;2.90;;;2.70;;
16822;SDS011;8528;49.976;11.858;2023-07-29T10:36:04;1.60;;;1.50;;
16822;SDS011;8528;49.976;11.858;2023-07-29T10:38:33;1.40;;;1.30;;
16822;SDS011;8528;49.976;11.858;2023-07-29T10:41:00;2.83;;;1.83;;
16822;SDS011;8528;49.976;11.858;2023-07-29T10:43:36;2.07;;;1.80;;
16822;SDS011;8528;49.976;11.858;2023-07-29T10:46:16;1.67;;;1.57;;
16822;SDS011;8528;49.976;11.858;2023-07-29T10:48:55;2.47;;;2.13;;
16822;SDS011;8528;49.976;11.858;2023-07-29T10:51:29;2.17;;;1.97;;
16822;SDS011;8528;49.976;11.858;2023-07-29T10:54:11;2.57;;;2.00;;
16822;SDS011;8528;49.976;11.858;2023-07-29T10:56:41;2.37;;;2.17;;
16822;SDS011;8528;49.976;11.858;2023-07-29T11:01:41;2.10;;;1.90;;
16822;SDS011;8528;49.976;11.858;2023-07-29T11:15:28;1.87;;;1.70;;
16822;SDS011;8528;49.976;11.858;2023-07-29T11:17:59;1.57;;;1.47;;
16822;SDS011;8528;49.976;11.858;2023-07-29T11:20:32;3.00;;;1.60;;
16822;SDS011;8528;49.976;11.858;2023-07-29T11:23:00;3.20;;;1.60;;
16822;SDS011;8528;49.976;11.858;2023-07-29T11:25:30;1.70;;;1.60;;
16822;SDS011;8528;49.976;11.858;2023-07-29T11:27:59;1.93;;;1.60;;
16822;SDS011;8528;49.976;11.858;2023-07-29T11:30:31;1.80;;;1.60;;
16822;SDS011;8528;49.976;11.858;2023-07-29T11:33:01;1.87;;;1.70;;
16822;SDS011;8528;49.976;11.858;2023-07-29T11:35:29;1.57;;;1.47;;
16822;SDS011;8528;49.976;11.858;2023-07-29T11:37:58;3.40;;;1.70;;
16822;SDS011;8528;49.976;11.858;2023-07-29T11:40:26;1.40;;;1.30;;
16822;SDS011;8528;49.976;11.858;2023-07-29T11:42:56;1.70;;;1.60;;
16822;SDS011;8528;49.976;11.858;2023-07-29T11:45:32;1.80;;;1.50;;
16822;SDS011;8528;49.976;11.858;2023-07-29T11:48:17;4.00;;;2.83;;
16822;SDS011;8528;49.976;11.858;2023-07-29T11:50:45;2.10;;;1.30;;
16822;SDS011;8528;49.976;11.858;2023-07-29T11:53:15;2.00;;;1.60;;
16822;SDS011;8528;49.976;11.858;2023-07-29T11:55:43;1.63;;;1.40;;
16822;SDS011;8528;49.976;11.858;2023-07-29T11:58:11;2.10;;;1.47;;
16822;SDS011;8528;49.976;11.858;2023-07-29T12:00:38;2.03;;;1.40;;
16822;SDS011;8528;49.976;11.858;2023-07-29T12:03:05;1.60;;;1.50;;
16822;SDS011;8528;49.976;11.858;2023-07-29T12:05:37;2.25;;;1.30;;
16822;SDS011;8528;49.976;11.858;2023-07-29T12:08:04;1.65;;;1.55;;
16822;SDS011;8528;49.976;11.858;2023-07-29T12:10:31;1.60;;;1.50;;
16822;SDS011;8528;49.976;11.858;2023-07-29T12:13:00;3.78;;;1.52;;
16822;SDS011;8528;49.976;11.858;2023-07-29T12:15:29;1.63;;;1.45;;
16822;SDS011;8528;49.976;11.858;2023-07-29T12:18:01;1.80;;;1.55;;
16822;SDS011;8528;49.976;11.858;2023-07-29T12:20:29;1.60;;;1.50;;
16822;SDS011;8528;49.976;11.858;2023-07-29T12:22:57;2.10;;;1.90;;
16822;SDS011;8528;49.976;11.858;2023-07-29T12:25:28;1.42;;;1.33;;
16822;SDS011;8528;49.976;11.858;2023-07-29T12:28:04;2.80;;;2.33;;
16822;SDS011;8528;49.976;11.858;2023-07-29T12:30:41;1.95;;;1.77;;
16822;SDS011;8528;49.976;11.858;2023-07-29T12:33:08;3.25;;;1.90;;
16822;SDS011;8528;49.976;11.858;2023-07-29T12:35:36;3.88;;;2.63;;
16822;SDS011;8528;49.976;11.858;2023-07-29T12:38:04;4.32;;;3.45;;
16822;SDS011;8528;49.976;11.858;2023-07-29T12:40:31;10.00;;;6.82;;
16822;SDS011;8528;49.976;11.858;2023-07-29T12:42:58;3.30;;;2.30;;
16822;SDS011;8528;49.976;11.858;2023-07-29T12:45:27;1.50;;;1.40;;
16822;SDS011;8528;49.976;11.858;2023-07-29T12:47:55;1.87;;;1.70;;
16822;SDS011;8528;49.976;11.858;2023-07-29T12:50:32;2.10;;;1.63;;
16822;SDS011;8528;49.976;11.858;2023-07-29T12:52:59;2.20;;;2.00;;
16822;SDS011;8528;49.976;11.858;2023-07-29T12:55:26;2.30;;;2.10;;
16822;SDS011;8528;49.976;11.858;2023-07-29T12:57:53;2.20;;;2.00;;
16822;SDS011;8528;49.976;11.858;2023-07-29T13:00:21;1.90;;;1.70;;
16822;SDS011;8528;49.976;11.858;2023-07-29T13:02:54;2.10;;;1.93;;
16822;SDS011;8528;49.976;11.858;2023-07-29T13:05:21;2.57;;;2.00;;
16822;SDS011;8528;49.976;11.858;2023-07-29T13:07:48;3.17;;;2.50;;
16822;SDS011;8528;49.976;11.858;2023-07-29T13:13:05;2.50;;;1.90;;
16822;SDS011;8528;49.976;11.858;2023-07-29T13:15:32;3.10;;;2.40;;
16822;SDS011;8528;49.976;11.858;2023-07-29T13:17:59;2.97;;;2.10;;
16822;SDS011;8528;49.976;11.858;2023-07-29T13:20:26;2.17;;;1.87;;
16822;SDS011;8528;49.976;11.858;2023-07-29T13:22:54;2.07;;;1.77;;
16822;SDS011;8528;49.976;11.858;2023-07-29T13:25:21;2.47;;;1.90;;
16822;SDS011;8528;49.976;11.858;2023-07-29T13:27:48;1.80;;;1.70;;
16822;SDS011;8528;49.976;11.858;2023-07-29T13:30:15;2.70;;;2.27;;
16822;SDS011;8528;49.976;11.858;2023-07-29T13:32:44;2.60;;;1.67;;
16822;SDS011;8528;49.976;11.858;2023-07-29T13:35:11;2.20;;;2.00;;
16822;SDS011;8528;49.976;11.858;2023-07-29T13:37:38;1.63;;;1.43;;
16822;SDS011;8528;49.976;11.858;2023-07-29T13:40:05;2.53;;;1.93;;
16822;SDS011;8528;49.976;11.858;2023-07-29T13:42:32;2.33;;;2.13;;
16822;SDS011;8528;49.976;11.858;2023-07-29T13:45:00;2.93;;;2.03;;
16822;SDS011;8528;49.976;11.858;2023-07-29T13:47:28;1.60;;;1.50;;
16822;SDS011;8528;49.976;11.858;2023-07-29T13:49:55;2.37;;;2.17;;
16822;SDS011;8528;49.976;11.858;2023-07-29T13:52:22;2.03;;;1.80;;
16822;SDS011;8528;49.976;11.858;2023-07-29T13:54:49;2.20;;;1.83;;
16822;SDS011;8528;49.976;11.858;2023-07-29T13:57:16;1.80;;;1.70;;
16822;SDS011;8528;49.976;11.858;2023-07-29T13:59:45;2.03;;;1.40;;
16822;SDS011;8528;49.976;11.858;2023-07-29T14:02:12;2.37;;;2.07;;
16822;SDS011;8528;49.976;11.858;2023-07-29T14:04:40;2.03;;;1.80;;
16822;SDS011;8528;49.976;11.858;2023-07-29T14:07:07;2.10;;;1.90;;
16822;SDS011;8528;49.976;11.858;2023-07-29T14:09:34;2.30;;;1.80;;
16822;SDS011;8528;49.976;11.858;2023-07-29T14:12:01;1.87;;;1.77;;
16822;SDS011;8528;49.976;11.858;2023-07-29T14:14:30;2.33;;;1.87;;
16822;SDS011;8528;49.976;11.858;2023-07-29T14:16:57;2.17;;;1.97;;
16822;SDS011;8528;49.976;11.858;2023-07-29T14:19:25;2.30;;;2.10;;
16822;SDS011;8528;49.976;11.858;2023-07-29T14:21:51;2.47;;;2.10;;
16822;SDS011;8528;49.976;11.858;2023-07-29T14:24:18;2.70;;;2.27;;
16822;SDS011;8528;49.976;11.858;2023-07-29T14:26:46;2.10;;;1.90;;
16822;SDS011;8528;49.976;11.858;2023-07-29T14:29:13;2.87;;;1.90;;
16822;SDS011;8528;49.976;11.858;2023-07-29T14:31:40;2.37;;;2.17;;
16822;SDS011;8528;49.976;11.858;2023-07-29T14:34:07;2.03;;;1.90;;
16822;SDS011;8528;49.976;11.858;2023-07-29T14:36:35;2.50;;;2.23;;
16822;SDS011;8528;49.976;11.858;2023-07-29T14:39:05;2.30;;;2.10;;
16822;SDS011;8528;49.976;11.858;2023-07-29T14:41:32;2.60;;;2.03;;
16822;SDS011;8528;49.976;11.858;2023-07-29T14:43:59;2.57;;;2.37;;
16822;SDS011;8528;49.976;11.858;2023-07-29T14:46:26;2.67;;;2.30;;
16822;SDS011;8528;49.976;11.858;2023-07-29T14:48:53;2.70;;;2.50;;
16822;SDS011;8528;49.976;11.858;2023-07-29T14:51:20;2.30;;;2.10;;
16822;SDS011;8528;49.976;11.858;2023-07-29T14:53:47;3.10;;;2.47;;
16822;SDS011;8528;49.976;11.858;2023-07-29T14:56:14;2.57;;;2.20;;
16822;SDS011;8528;49.976;11.858;2023-07-29T14:58:58;4.00;;;2.40;;
16822;SDS011;8528;49.976;11.858;2023-07-29T15:01:25;2.80;;;2.50;;
16822;SDS011;8528;49.976;11.858;2023-07-29T15:03:53;2.70;;;2.50;;
16822;SDS011;8528;49.976;11.858;2023-07-29T15:06:20;2.87;;;2.60;;
16822;SDS011;8528;49.976;11.858;2023-07-29T15:08:53;2.87;;;2.17;;
16822;SDS011;8528;49.976;11.858;2023-07-29T15:11:20;4.43;;;2.10;;
16822;SDS011;8528;49.976;11.858;2023-07-29T15:13:47;2.53;;;1.87;;
16822;SDS011;8528;49.976;11.858;2023-07-29T15:16:14;1.97;;;1.87;;
16822;SDS011;8528;49.976;11.858;2023-07-29T15:19:02;2.40;;;2.10;;
16822;SDS011;8528;49.976;11.858;2023-07-29T15:21:31;2.50;;;1.77;;
16822;SDS011;8528;49.976;11.858;2023-07-29T15:24:00;3.47;;;2.37;;
16822;SDS011;8528;49.976;11.858;2023-07-29T15:26:27;3.47;;;2.33;;
16822;SDS011;8528;49.976;11.858;2023-07-29T15:28:57;2.60;;;2.27;;
16822;SDS011;8528;49.976;11.858;2023-07-29T15:31:26;4.17;;;2.03;;